Orel 5 — EMFH — position and weather

sailwx.info

Track history (hours):
 
Tides and Currents Weather Stations Pressure Air Temp Water Temp Dewpoint Dewpoint Depression Visibility Wind Speed Wind Dir Waves Ship Positions

Orel 5

Last reported at 2015-May-24 22:33 UTC. Time now 2015-May-24 23:21 UTC.
Position N 46°18' E 030°55'.

Length 108 m; draft 2.7 m.

Type: Cargo ship. MMSI: 272059000.

Date/timePositionNaut miles runAvg speedWind from/ knotsBaromVisibWave heightAir tempDewpointWater temp
2015-May-24 22:33N 46°18' E 030°55'8 7.7
2015-May-24 21:32N 46°26' E 030°55'7 6.8
2015-May-24 20:30N 46°33' E 030°58'7 7.5
2015-May-24 19:33N 46°35' E 031°08'8 8.0
2015-May-24 18:33N 46°35' E 031°19'7 7.4
2015-May-24 17:33N 46°36' E 031°30'7 7.0
2015-May-24 16:32N 46°36' E 031°41'8 7.3
2015-May-24 15:29N 46°35' E 031°51'7 7.3
2015-May-24 14:33N 46°33' E 032°01'148 5.1
2015-May-23 09:33N 47°46' E 035°09'4 4.2
2015-May-23 08:33N 47°50' E 035°07'2 2.0
2015-May-23 07:28N 47°52' E 035°06'1 0.5
2015-May-23 06:24N 47°52' E 035°06'0 0.0
2015-May-23 05:30N 47°52' E 035°06'0 0.0
2015-May-23 04:30N 47°52' E 035°06'0 0.0
2015-May-23 03:30N 47°52' E 035°06'0 0.1
2015-May-23 02:30N 47°52' E 035°06'0 0.0
2015-May-23 00:24N 47°52' E 035°06'0 0.0
2015-May-22 23:24N 47°52' E 035°06'0 0.0
2015-May-22 21:18N 47°52' E 035°06'0 0.0
2015-May-22 20:24N 47°52' E 035°06'0 0.0
2015-May-22 19:30N 47°52' E 035°06'0 0.0
2015-May-22 18:30N 47°52' E 035°06'0 0.0
2015-May-22 17:30N 47°52' E 035°06'0 0.0
2015-May-22 16:30N 47°52' E 035°06'0 0.0
2015-May-22 15:30N 47°52' E 035°06'0 0.0
2015-May-22 14:30N 47°52' E 035°06'0 0.0
2015-May-22 13:30N 47°52' E 035°06'0 0.0
2015-May-22 12:30N 47°52' E 035°06'0 0.0
2015-May-22 11:30N 47°52' E 035°06'0 0.0
2015-May-22 10:24N 47°52' E 035°06'0 0.1
2015-May-22 09:30N 47°52' E 035°06'0 0.0
2015-May-22 08:30N 47°52' E 035°06'0 0.0
2015-May-22 07:30N 47°52' E 035°06'0 0.0
2015-May-22 06:30N 47°52' E 035°06'0 0.0
2015-May-22 05:30N 47°52' E 035°06'0 0.0
2015-May-22 04:30N 47°52' E 035°06'0 0.0
2015-May-22 03:30N 47°52' E 035°06'0 0.0
2015-May-22 02:30N 47°52' E 035°06'0 0.0
2015-May-22 01:30N 47°52' E 035°06'0 0.0
2015-May-22 00:30N 47°52' E 035°06'0 0.0
2015-May-21 23:30N 47°52' E 035°06'0 0.0
2015-May-21 22:30N 47°52' E 035°06'0 0.0
2015-May-21 21:30N 47°52' E 035°06'0 0.0
2015-May-21 20:30N 47°52' E 035°06'0 0.2
2015-May-21 19:30N 47°52' E 035°06'0 0.0
2015-May-21 18:30N 47°52' E 035°06'0 0.0
2015-May-21 17:30N 47°52' E 035°06'0 0.0
2015-May-21 16:30N 47°52' E 035°06'0 0.0
2015-May-21 15:30N 47°52' E 035°06'0 0.2
2015-May-21 14:30N 47°52' E 035°06'0 0.0
2015-May-21 13:30N 47°52' E 035°06'0 0.0
2015-May-21 12:30N 47°52' E 035°06'0 0.0
2015-May-21 11:30N 47°52' E 035°06'0 0.0
2015-May-21 10:30N 47°52' E 035°06'0 0.0
2015-May-21 09:30N 47°52' E 035°06'0 0.0
2015-May-21 08:30N 47°52' E 035°06'0 0.0
2015-May-21 07:30N 47°52' E 035°06'0 0.0
2015-May-21 06:30N 47°52' E 035°06'0 0.0
2015-May-21 05:30N 47°52' E 035°06'0 0.0
2015-May-21 04:30N 47°52' E 035°06'0 0.0
2015-May-21 03:30N 47°52' E 035°06'0 0.0
2015-May-21 02:30N 47°52' E 035°06'0 0.0
2015-May-21 01:30N 47°52' E 035°06'0 0.0
2015-May-21 00:30N 47°52' E 035°06'0 0.0
2015-May-20 23:30N 47°52' E 035°06'0 0.0
2015-May-20 22:30N 47°52' E 035°06'0 0.0
2015-May-20 21:30N 47°52' E 035°06'0 0.0
2015-May-20 20:30N 47°52' E 035°06'0 0.0
2015-May-20 19:30N 47°52' E 035°06'0 0.0
2015-May-20 18:30N 47°52' E 035°06'0 0.1
2015-May-20 17:30N 47°52' E 035°06'0 0.0
2015-May-20 16:30N 47°52' E 035°06'0 0.0
2015-May-20 15:30N 47°52' E 035°06'0 0.0
2015-May-20 14:30N 47°52' E 035°06'0 0.0
2015-May-20 13:30N 47°52' E 035°06'0 0.0
2015-May-20 12:30N 47°52' E 035°06'0 0.0
2015-May-20 11:30N 47°52' E 035°06'0 0.0
2015-May-20 10:30N 47°52' E 035°06'0 0.0
2015-May-20 09:30N 47°52' E 035°06'0 0.0
2015-May-20 08:30N 47°52' E 035°06'0 0.0
2015-May-20 06:33N 47°52' E 035°06'0 0.0
2015-May-20 05:33N 47°52' E 035°06'5 5.5
2015-May-20 04:33N 47°58' E 035°07'  
2015-May-16 06:33N 47°54' E 035°07'3 1.9
2015-May-16 05:13N 47°52' E 035°05'2 2.8
2015-May-16 04:33N 47°50' E 035°06'7 6.6
2015-May-16 03:33N 47°44' E 035°10'  
Track history (hours):
 
Tides and Currents Weather Stations Pressure Air Temp Water Temp Dewpoint Dewpoint Depression Visibility Wind Speed Wind Dir Waves Ship Positions

Orel 5

Last reported at 2015-May-24 22:33 UTC. Time now 2015-May-24 23:21 UTC.
Position N 46°18' E 030°55'.

Length 108 m; draft 2.7 m.

Type: Cargo ship. MMSI: 272059000.

Date/timePositionNaut miles runAvg speedWind from/ knotsBaromVisibWave heightAir tempDewpointWater temp
2015-May-24 22:33N 46°18' E 030°55'8 7.7
2015-May-24 21:32N 46°26' E 030°55'7 6.8
2015-May-24 20:30N 46°33' E 030°58'7 7.5
2015-May-24 19:33N 46°35' E 031°08'8 8.0
2015-May-24 18:33N 46°35' E 031°19'7 7.4
2015-May-24 17:33N 46°36' E 031°30'7 7.0
2015-May-24 16:32N 46°36' E 031°41'8 7.3
2015-May-24 15:29N 46°35' E 031°51'7 7.3
2015-May-24 14:33N 46°33' E 032°01'148 5.1
2015-May-23 09:33N 47°46' E 035°09'4 4.2
2015-May-23 08:33N 47°50' E 035°07'2 2.0
2015-May-23 07:28N 47°52' E 035°06'1 0.5
2015-May-23 06:24N 47°52' E 035°06'0 0.0
2015-May-23 05:30N 47°52' E 035°06'0 0.0
2015-May-23 04:30N 47°52' E 035°06'0 0.0
2015-May-23 03:30N 47°52' E 035°06'0 0.1
2015-May-23 02:30N 47°52' E 035°06'0 0.0
2015-May-23 00:24N 47°52' E 035°06'0 0.0
2015-May-22 23:24N 47°52' E 035°06'0 0.0
2015-May-22 21:18N 47°52' E 035°06'0 0.0
2015-May-22 20:24N 47°52' E 035°06'0 0.0
2015-May-22 19:30N 47°52' E 035°06'0 0.0
2015-May-22 18:30N 47°52' E 035°06'0 0.0
2015-May-22 17:30N 47°52' E 035°06'0 0.0
2015-May-22 16:30N 47°52' E 035°06'0 0.0
2015-May-22 15:30N 47°52' E 035°06'0 0.0
2015-May-22 14:30N 47°52' E 035°06'0 0.0
2015-May-22 13:30N 47°52' E 035°06'0 0.0
2015-May-22 12:30N 47°52' E 035°06'0 0.0
2015-May-22 11:30N 47°52' E 035°06'0 0.0
2015-May-22 10:24N 47°52' E 035°06'0 0.1
2015-May-22 09:30N 47°52' E 035°06'0 0.0
2015-May-22 08:30N 47°52' E 035°06'0 0.0
2015-May-22 07:30N 47°52' E 035°06'0 0.0
2015-May-22 06:30N 47°52' E 035°06'0 0.0
2015-May-22 05:30N 47°52' E 035°06'0 0.0
2015-May-22 04:30N 47°52' E 035°06'0 0.0
2015-May-22 03:30N 47°52' E 035°06'0 0.0
2015-May-22 02:30N 47°52' E 035°06'0 0.0
2015-May-22 01:30N 47°52' E 035°06'0 0.0
2015-May-22 00:30N 47°52' E 035°06'0 0.0
2015-May-21 23:30N 47°52' E 035°06'0 0.0
2015-May-21 22:30N 47°52' E 035°06'0 0.0
2015-May-21 21:30N 47°52' E 035°06'0 0.0
2015-May-21 20:30N 47°52' E 035°06'0 0.2
2015-May-21 19:30N 47°52' E 035°06'0 0.0
2015-May-21 18:30N 47°52' E 035°06'0 0.0
2015-May-21 17:30N 47°52' E 035°06'0 0.0
2015-May-21 16:30N 47°52' E 035°06'0 0.0
2015-May-21 15:30N 47°52' E 035°06'0 0.2
2015-May-21 14:30N 47°52' E 035°06'0 0.0
2015-May-21 13:30N 47°52' E 035°06'0 0.0
2015-May-21 12:30N 47°52' E 035°06'0 0.0
2015-May-21 11:30N 47°52' E 035°06'0 0.0
2015-May-21 10:30N 47°52' E 035°06'0 0.0
2015-May-21 09:30N 47°52' E 035°06'0 0.0
2015-May-21 08:30N 47°52' E 035°06'0 0.0
2015-May-21 07:30N 47°52' E 035°06'0 0.0
2015-May-21 06:30N 47°52' E 035°06'0 0.0
2015-May-21 05:30N 47°52' E 035°06'0 0.0
2015-May-21 04:30N 47°52' E 035°06'0 0.0
2015-May-21 03:30N 47°52' E 035°06'0 0.0
2015-May-21 02:30N 47°52' E 035°06'0 0.0
2015-May-21 01:30N 47°52' E 035°06'0 0.0
2015-May-21 00:30N 47°52' E 035°06'0 0.0
2015-May-20 23:30N 47°52' E 035°06'0 0.0
2015-May-20 22:30N 47°52' E 035°06'0 0.0
2015-May-20 21:30N 47°52' E 035°06'0 0.0
2015-May-20 20:30N 47°52' E 035°06'0 0.0
2015-May-20 19:30N 47°52' E 035°06'0 0.0
2015-May-20 18:30N 47°52' E 035°06'0 0.1
2015-May-20 17:30N 47°52' E 035°06'0 0.0
2015-May-20 16:30N 47°52' E 035°06'0 0.0
2015-May-20 15:30N 47°52' E 035°06'0 0.0
2015-May-20 14:30N 47°52' E 035°06'0 0.0
2015-May-20 13:30N 47°52' E 035°06'0 0.0
2015-May-20 12:30N 47°52' E 035°06'0 0.0
2015-May-20 11:30N 47°52' E 035°06'0 0.0
2015-May-20 10:30N 47°52' E 035°06'0 0.0
2015-May-20 09:30N 47°52' E 035°06'0 0.0
2015-May-20 08:30N 47°52' E 035°06'0 0.0
2015-May-20 06:33N 47°52' E 035°06'0 0.0
2015-May-20 05:33N 47°52' E 035°06'5 5.5
2015-May-20 04:33N 47°58' E 035°07'  
2015-May-16 06:33N 47°54' E 035°07'3 1.9
2015-May-16 05:13N 47°52' E 035°05'2 2.8
2015-May-16 04:33N 47°50' E 035°06'7 6.6
2015-May-16 03:33N 47°44' E 035°10'  

Dump ship's entire track history